createdAt,value
2022-10-22T00:01:54.222Z,13.90
2022-10-22T00:04:22.841Z,13.90
2022-10-22T00:06:51.106Z,13.80
2022-10-22T00:09:19.470Z,13.80
2022-10-22T00:11:49.040Z,13.80
2022-10-22T00:14:17.325Z,13.80
2022-10-22T00:16:45.571Z,13.80
2022-10-22T00:19:14.975Z,13.80
2022-10-22T00:21:43.145Z,13.80
2022-10-22T00:24:11.351Z,13.80
2022-10-22T00:26:40.406Z,13.80
2022-10-22T00:29:10.080Z,13.80
2022-10-22T00:31:38.257Z,13.80
2022-10-22T00:34:06.502Z,13.80
2022-10-22T00:36:34.720Z,13.90
2022-10-22T00:39:02.924Z,13.80
2022-10-22T00:41:31.108Z,13.90
2022-10-22T00:44:01.195Z,13.80
2022-10-22T00:46:30.813Z,13.90
2022-10-22T00:49:00.617Z,13.90
2022-10-22T00:51:30.967Z,13.90
2022-10-22T00:54:03.052Z,13.90
2022-10-22T00:56:31.211Z,13.90
2022-10-22T00:59:01.102Z,13.90
2022-10-22T01:01:32.283Z,13.90
2022-10-22T01:04:00.521Z,13.90
2022-10-22T01:06:30.475Z,13.80
2022-10-22T01:09:07.686Z,13.90
2022-10-22T01:11:43.619Z,13.90
2022-10-22T01:14:17.713Z,13.90
2022-10-22T01:16:52.216Z,13.90
2022-10-22T01:19:45.875Z,14.00
2022-10-22T01:22:18.433Z,14.00
2022-10-22T01:25:04.953Z,14.00
2022-10-22T01:27:56.808Z,14.00
2022-10-22T01:30:26.517Z,14.00
2022-10-22T01:32:57.455Z,14.00
2022-10-22T01:35:29.119Z,14.00
2022-10-22T01:37:59.452Z,14.00
2022-10-22T01:40:27.706Z,14.00
2022-10-22T01:42:58.630Z,13.90
2022-10-22T01:45:28.288Z,14.00
2022-10-22T01:48:05.083Z,13.90
2022-10-22T01:51:01.572Z,13.90
2022-10-22T01:53:34.382Z,13.90
2022-10-22T01:56:18.339Z,13.80
2022-10-22T01:58:52.512Z,13.80
2022-10-22T02:01:26.139Z,13.80
2022-10-22T02:04:01.632Z,13.80
2022-10-22T02:06:30.068Z,13.80
2022-10-22T02:08:58.288Z,13.80
2022-10-22T02:11:26.449Z,13.80
2022-10-22T02:13:56.262Z,13.80
2022-10-22T02:16:28.869Z,13.80
2022-10-22T02:18:58.029Z,13.70
2022-10-22T02:21:26.190Z,13.70
2022-10-22T02:23:54.304Z,13.70
2022-10-22T02:26:26.136Z,13.70
2022-10-22T02:28:59.644Z,13.70
2022-10-22T02:31:32.091Z,13.70
2022-10-22T02:34:04.759Z,13.70
2022-10-22T02:36:32.962Z,13.70
2022-10-22T02:39:01.110Z,13.70
2022-10-22T02:41:29.183Z,13.70
2022-10-22T02:43:57.522Z,13.70
2022-10-22T02:46:25.931Z,13.60
2022-10-22T02:48:56.008Z,13.60
2022-10-22T02:51:24.301Z,13.60
2022-10-22T02:53:52.555Z,13.60
2022-10-22T02:56:20.854Z,13.60
2022-10-22T02:58:49.118Z,13.60
2022-10-22T03:01:17.425Z,13.60
2022-10-22T03:03:45.778Z,13.60
2022-10-22T03:06:15.506Z,13.60
2022-10-22T03:08:44.386Z,13.60
2022-10-22T03:11:12.730Z,13.60
2022-10-22T03:13:41.030Z,13.50
2022-10-22T03:16:09.822Z,13.50
2022-10-22T03:18:38.117Z,13.50
2022-10-22T03:21:11.603Z,13.50
2022-10-22T03:23:42.039Z,13.50
2022-10-22T03:26:10.405Z,13.60
2022-10-22T03:28:38.715Z,13.60
2022-10-22T03:31:07.347Z,13.50
2022-10-22T03:33:35.458Z,13.50
2022-10-22T03:36:03.729Z,13.50
2022-10-22T03:38:31.804Z,13.50
2022-10-22T03:41:01.231Z,13.50
2022-10-22T03:43:29.354Z,13.40
2022-10-22T03:45:57.493Z,13.40
2022-10-22T03:48:25.683Z,13.40
2022-10-22T03:50:53.881Z,13.50
2022-10-22T03:53:22.180Z,13.40
2022-10-22T03:55:50.306Z,13.40
2022-10-22T03:58:19.762Z,13.50
2022-10-22T04:00:47.868Z,13.50
2022-10-22T04:03:15.972Z,13.50
2022-10-22T04:05:44.103Z,13.50
2022-10-22T04:08:12.188Z,13.50
2022-10-22T04:10:40.261Z,13.40
2022-10-22T04:13:08.372Z,13.40
2022-10-22T04:15:37.944Z,13.50
2022-10-22T04:18:06.184Z,13.50
2022-10-22T04:20:34.252Z,13.50
2022-10-22T04:23:02.331Z,13.50
2022-10-22T04:25:30.565Z,13.40
2022-10-22T04:27:58.652Z,13.40
2022-10-22T04:30:26.747Z,13.50
2022-10-22T04:32:56.199Z,13.40
2022-10-22T04:37:57.391Z,13.40
2022-10-22T04:40:25.588Z,13.40
2022-10-22T04:42:53.675Z,13.40
2022-10-22T04:45:21.748Z,13.40
2022-10-22T04:47:49.796Z,13.30
2022-10-22T04:50:19.363Z,13.30
2022-10-22T04:52:47.461Z,13.30
2022-10-22T04:55:15.526Z,13.30
2022-10-22T04:57:43.683Z,13.30
2022-10-22T05:00:13.115Z,13.30
2022-10-22T05:02:44.616Z,13.30
2022-10-22T05:05:12.912Z,13.30
2022-10-22T05:07:42.668Z,13.30
2022-10-22T05:10:11.546Z,13.30
2022-10-22T05:12:40.016Z,13.30
2022-10-22T05:15:10.256Z,13.30
2022-10-22T05:17:38.795Z,13.30
2022-10-22T05:20:09.006Z,13.20
2022-10-22T05:22:37.066Z,13.20
2022-10-22T05:25:08.119Z,13.20
2022-10-22T05:27:36.277Z,13.20
2022-10-22T05:30:05.004Z,13.20
2022-10-22T05:32:33.138Z,13.10
2022-10-22T05:35:01.242Z,13.10
2022-10-22T05:37:29.319Z,13.10
2022-10-22T05:40:06.599Z,13.10
2022-10-22T05:42:46.748Z,13.10
2022-10-22T05:45:15.012Z,13.00
2022-10-22T05:47:43.087Z,13.00
2022-10-22T05:50:11.271Z,13.00
2022-10-22T05:52:39.746Z,13.00
2022-10-22T05:55:08.940Z,13.00
2022-10-22T05:57:37.053Z,13.00
2022-10-22T06:00:11.655Z,13.00
2022-10-22T06:02:42.713Z,13.00
2022-10-22T06:05:10.982Z,13.00
2022-10-22T06:07:39.281Z,13.00
2022-10-22T06:10:10.603Z,13.00
2022-10-22T06:12:38.961Z,13.00
2022-10-22T06:15:11.021Z,13.00
2022-10-22T06:17:39.242Z,13.00
2022-10-22T06:20:09.467Z,13.00
2022-10-22T06:22:37.613Z,13.00
2022-10-22T06:25:08.228Z,13.00
2022-10-22T06:27:36.340Z,13.00
2022-10-22T06:30:05.005Z,13.00
2022-10-22T06:32:34.448Z,13.00
2022-10-22T06:35:02.564Z,13.00
2022-10-22T06:37:30.729Z,13.10
2022-10-22T06:39:58.807Z,13.10
2022-10-22T06:42:26.875Z,13.10
2022-10-22T06:44:55.031Z,13.10
2022-10-22T06:47:23.319Z,13.10
2022-10-22T06:49:52.788Z,13.10
2022-10-22T06:52:20.882Z,13.20
2022-10-22T06:54:49.143Z,13.30
2022-10-22T06:57:17.175Z,13.30
2022-10-22T06:59:45.315Z,13.30
2022-10-22T07:02:14.019Z,13.40
2022-10-22T07:04:42.109Z,13.40
2022-10-22T07:07:11.631Z,13.40
2022-10-22T07:09:39.803Z,13.40
2022-10-22T07:12:08.376Z,13.50
2022-10-22T07:14:36.459Z,13.50
2022-10-22T07:17:04.562Z,13.60
2022-10-22T07:19:32.682Z,13.60
2022-10-22T07:22:00.841Z,13.60
2022-10-22T07:24:30.648Z,13.70
2022-10-22T07:26:58.794Z,13.70
2022-10-22T07:29:26.922Z,13.80
2022-10-22T07:31:55.098Z,13.80
2022-10-22T07:34:23.365Z,13.80
2022-10-22T07:36:51.426Z,13.80
2022-10-22T07:39:19.562Z,13.90
2022-10-22T07:41:49.021Z,14.00
2022-10-22T07:44:17.154Z,14.10
2022-10-22T07:46:48.147Z,14.10
2022-10-22T07:49:17.204Z,14.20
2022-10-22T07:51:45.318Z,14.30
2022-10-22T07:54:13.361Z,14.40
2022-10-22T07:56:41.452Z,14.50
2022-10-22T07:59:10.912Z,14.60
2022-10-22T08:01:39.102Z,14.70
2022-10-22T08:04:08.331Z,14.70
2022-10-22T08:06:37.155Z,14.70
2022-10-22T08:09:05.442Z,14.70
2022-10-22T08:11:34.038Z,14.70
2022-10-22T08:14:02.109Z,14.80
2022-10-22T08:16:31.695Z,14.80
2022-10-22T08:18:59.918Z,14.80
2022-10-22T08:21:28.168Z,14.80
2022-10-22T08:23:56.464Z,14.90
2022-10-22T08:26:25.012Z,14.90
2022-10-22T08:28:53.100Z,14.90
2022-10-22T08:31:21.177Z,14.90
2022-10-22T08:33:50.759Z,15.00
2022-10-22T08:36:18.948Z,15.00
2022-10-22T08:38:47.080Z,15.00
2022-10-22T08:41:18.338Z,15.00
2022-10-22T08:44:07.441Z,15.10
2022-10-22T08:46:57.003Z,15.10
2022-10-22T08:49:29.244Z,15.10
2022-10-22T08:51:57.707Z,15.20
2022-10-22T08:54:33.206Z,15.20
2022-10-22T08:57:17.826Z,15.20
2022-10-22T08:59:47.721Z,15.20
2022-10-22T09:02:31.486Z,15.20
2022-10-22T09:05:11.487Z,15.20
2022-10-22T09:07:43.316Z,15.30
2022-10-22T09:10:13.214Z,15.40
2022-10-22T09:12:41.245Z,15.40
2022-10-22T09:15:14.404Z,15.50
2022-10-22T09:17:51.385Z,15.60
2022-10-22T09:20:28.506Z,15.60
2022-10-22T09:23:04.547Z,15.60
2022-10-22T09:25:34.303Z,15.70
2022-10-22T09:28:02.726Z,15.80
2022-10-22T09:30:32.691Z,15.80
2022-10-22T09:33:02.335Z,15.90
2022-10-22T09:35:31.957Z,16.00
2022-10-22T09:38:00.037Z,16.00
2022-10-22T09:40:28.166Z,16.10
2022-10-22T09:42:56.260Z,16.20
2022-10-22T09:45:26.312Z,16.20
2022-10-22T09:48:10.577Z,16.30
2022-10-22T09:50:44.960Z,16.40
2022-10-22T09:53:15.902Z,16.40
2022-10-22T09:55:44.416Z,16.40
2022-10-22T09:58:13.924Z,16.40
2022-10-22T10:00:42.873Z,16.40
2022-10-22T10:03:17.207Z,16.40
2022-10-22T10:05:48.516Z,16.40
2022-10-22T10:08:18.510Z,16.50
2022-10-22T10:10:49.415Z,16.60
2022-10-22T10:13:53.609Z,16.60
2022-10-22T10:16:38.199Z,16.70
2022-10-22T10:19:23.596Z,16.90
2022-10-22T10:21:59.145Z,17.00
2022-10-22T10:24:32.103Z,17.20
2022-10-22T10:27:02.662Z,17.20
2022-10-22T10:29:45.963Z,17.30
2022-10-22T10:33:01.295Z,17.30
2022-10-22T10:35:32.047Z,17.30
2022-10-22T10:38:27.369Z,17.30
2022-10-22T10:41:04.439Z,17.20
2022-10-22T10:43:39.718Z,17.20
2022-10-22T10:46:12.677Z,17.20
2022-10-22T10:48:51.020Z,17.20
2022-10-22T10:51:33.101Z,17.20
2022-10-22T10:54:17.870Z,17.20
2022-10-22T10:56:48.785Z,17.10
2022-10-22T10:59:20.302Z,17.10
2022-10-22T11:02:01.111Z,17.10
2022-10-22T11:05:00.079Z,17.10
2022-10-22T11:07:34.634Z,17.20
2022-10-22T11:10:11.343Z,17.30
2022-10-22T11:12:42.827Z,17.40
2022-10-22T11:15:17.755Z,17.50
2022-10-22T11:17:47.423Z,17.60
2022-10-22T11:20:18.040Z,17.70
2022-10-22T11:23:17.009Z,17.70
2022-10-22T11:25:41.737Z,17.70
2022-10-22T11:30:48.529Z,17.70
2022-10-22T11:33:20.611Z,17.60
2022-10-22T11:35:48.733Z,17.60
2022-10-22T11:38:19.328Z,17.70
2022-10-22T11:40:57.632Z,17.70
2022-10-22T11:43:31.965Z,17.80
2022-10-22T11:46:05.108Z,17.90
2022-10-22T11:48:38.470Z,18.00
2022-10-22T11:51:29.689Z,18.20
2022-10-22T11:53:58.343Z,18.40
2022-10-22T11:56:28.194Z,18.60
2022-10-22T11:58:56.498Z,18.70
2022-10-22T12:01:27.797Z,18.70
2022-10-22T12:04:21.888Z,18.70
2022-10-22T12:07:01.555Z,18.80
2022-10-22T12:09:32.364Z,18.90
2022-10-22T12:12:14.607Z,19.00
2022-10-22T12:14:54.252Z,19.20
2022-10-22T12:17:23.066Z,19.30
2022-10-22T12:19:53.092Z,19.40
2022-10-22T12:22:22.948Z,19.50
2022-10-22T12:24:52.521Z,19.50
2022-10-22T12:27:23.556Z,19.60
2022-10-22T12:29:55.886Z,19.60
2022-10-22T12:32:24.204Z,19.60
2022-10-22T12:34:53.284Z,19.60
2022-10-22T12:37:21.484Z,19.50
2022-10-22T12:39:49.613Z,19.40
2022-10-22T12:42:18.703Z,19.30
2022-10-22T12:44:48.127Z,19.40
2022-10-22T12:47:17.644Z,19.50
2022-10-22T12:49:48.703Z,19.60
2022-10-22T12:52:19.367Z,19.70
2022-10-22T12:54:48.196Z,19.70
2022-10-22T12:57:17.756Z,19.70
2022-10-22T12:59:49.924Z,19.70
2022-10-22T13:02:22.447Z,19.80
2022-10-22T13:05:17.290Z,19.80
2022-10-22T13:07:48.300Z,19.80
2022-10-22T13:10:20.514Z,19.70
2022-10-22T13:12:52.044Z,19.70
2022-10-22T13:15:33.233Z,19.70
2022-10-22T13:18:06.515Z,19.60
2022-10-22T13:20:37.324Z,19.60
2022-10-22T13:23:06.112Z,19.60
2022-10-22T13:25:34.738Z,19.60
2022-10-22T13:28:14.283Z,19.50
2022-10-22T13:30:53.588Z,19.50
2022-10-22T13:33:25.018Z,19.50
2022-10-22T13:35:53.115Z,19.50
2022-10-22T13:38:22.689Z,19.50
2022-10-22T13:40:50.819Z,19.40
2022-10-22T13:43:19.042Z,19.40
2022-10-22T13:45:48.990Z,19.40
2022-10-22T13:48:19.147Z,19.30
2022-10-22T13:50:47.303Z,19.30
2022-10-22T13:53:18.905Z,19.20
2022-10-22T13:55:47.621Z,19.10
2022-10-22T14:00:54.409Z,19.00
2022-10-22T14:03:24.712Z,19.00
2022-10-22T14:05:52.838Z,18.90
2022-10-22T14:08:21.999Z,18.90
2022-10-22T14:10:50.283Z,18.80
2022-10-22T14:13:19.357Z,18.80
2022-10-22T14:15:49.136Z,18.80
2022-10-22T14:18:25.395Z,18.70
2022-10-22T14:20:54.043Z,18.70
2022-10-22T14:23:23.920Z,18.70
2022-10-22T14:25:52.043Z,18.60
2022-10-22T14:28:20.222Z,18.60
2022-10-22T14:30:48.297Z,18.50
2022-10-22T14:33:19.617Z,18.50
2022-10-22T14:35:49.255Z,18.40
2022-10-22T14:38:17.505Z,18.40
2022-10-22T14:40:45.965Z,18.40
2022-10-22T14:43:15.185Z,18.40
2022-10-22T14:45:43.224Z,18.30
2022-10-22T14:48:11.373Z,18.30
2022-10-22T14:50:40.868Z,18.30
2022-10-22T14:53:08.952Z,18.20
2022-10-22T14:55:37.031Z,18.20
2022-10-22T14:58:05.154Z,18.10
2022-10-22T15:00:34.458Z,18.10
2022-10-22T15:03:04.335Z,18.00
2022-10-22T15:05:32.749Z,17.90
2022-10-22T15:08:02.252Z,17.80
2022-10-22T15:10:30.367Z,17.80
2022-10-22T15:12:58.418Z,17.70
2022-10-22T15:15:31.540Z,17.60
2022-10-22T15:18:03.528Z,17.60
2022-10-22T15:20:31.697Z,17.50
2022-10-22T15:23:01.150Z,17.50
2022-10-22T15:25:29.704Z,17.40
2022-10-22T15:28:01.862Z,17.40
2022-10-22T15:30:32.812Z,17.30
2022-10-22T15:33:00.829Z,17.20
2022-10-22T15:35:29.351Z,17.20
2022-10-22T15:37:57.523Z,17.10
2022-10-22T15:40:26.959Z,17.10
2022-10-22T15:42:55.056Z,17.00
2022-10-22T15:45:24.990Z,16.90
2022-10-22T15:47:53.097Z,16.80
2022-10-22T15:50:21.195Z,16.70
2022-10-22T15:52:49.248Z,16.60
2022-10-22T15:55:17.488Z,16.50
2022-10-22T15:57:46.959Z,16.40
2022-10-22T16:00:16.131Z,16.30
2022-10-22T16:02:44.330Z,16.20
2022-10-22T16:05:12.412Z,16.10
2022-10-22T16:07:40.723Z,16.00
2022-10-22T16:10:12.698Z,15.90
2022-10-22T16:12:42.525Z,15.80
2022-10-22T16:15:12.548Z,15.80
2022-10-22T16:17:40.683Z,15.70
2022-10-22T16:20:10.307Z,15.60
2022-10-22T16:22:38.531Z,15.50
2022-10-22T16:25:07.889Z,15.50
2022-10-22T16:27:35.992Z,15.40
2022-10-22T16:30:04.569Z,15.30
2022-10-22T16:32:34.040Z,15.30
2022-10-22T16:35:02.131Z,15.20
2022-10-22T16:37:31.184Z,15.20
2022-10-22T16:40:00.963Z,15.20
2022-10-22T16:42:29.946Z,15.10
2022-10-22T16:44:57.995Z,15.10
2022-10-22T16:47:26.072Z,15.00
2022-10-22T16:49:55.528Z,15.00
2022-10-22T16:52:23.757Z,15.00
2022-10-22T16:54:51.919Z,15.00
2022-10-22T16:57:19.961Z,14.90
2022-10-22T16:59:48.909Z,14.90
2022-10-22T17:02:17.063Z,14.90
2022-10-22T17:04:45.180Z,14.80
2022-10-22T17:07:14.648Z,14.80
2022-10-22T17:09:42.747Z,14.80
2022-10-22T17:12:10.862Z,14.80
2022-10-22T17:14:39.086Z,14.80
2022-10-22T17:17:07.194Z,14.80
2022-10-22T17:19:38.773Z,14.70
2022-10-22T17:22:06.960Z,14.70
2022-10-22T17:24:36.490Z,14.70
2022-10-22T17:29:37.866Z,14.60
2022-10-22T17:32:06.474Z,14.50
2022-10-22T17:34:34.503Z,14.50
2022-10-22T17:37:02.592Z,14.40
2022-10-22T17:39:30.973Z,14.40
2022-10-22T17:42:00.395Z,14.40
2022-10-22T17:44:28.736Z,14.40
2022-10-22T17:46:56.790Z,14.40
2022-10-22T17:49:24.888Z,14.30
2022-10-22T17:51:53.199Z,14.30
2022-10-22T17:54:21.273Z,14.30
2022-10-22T17:56:49.458Z,14.30
2022-10-22T17:59:19.857Z,14.30
2022-10-22T18:01:48.780Z,14.20
2022-10-22T18:04:18.223Z,14.20
2022-10-22T18:06:47.125Z,14.10
2022-10-22T18:09:18.326Z,14.10
2022-10-22T18:11:47.605Z,14.10
2022-10-22T18:14:15.726Z,14.10
2022-10-22T18:16:45.201Z,14.10
2022-10-22T18:19:13.621Z,14.10
2022-10-22T18:21:41.651Z,14.10
2022-10-22T18:24:10.970Z,14.10
2022-10-22T18:26:39.134Z,14.10
2022-10-22T18:29:07.199Z,14.10
2022-10-22T18:31:35.360Z,14.10
2022-10-22T18:34:04.849Z,14.20
2022-10-22T18:36:32.904Z,14.20
2022-10-22T18:39:02.571Z,14.20
2022-10-22T18:41:31.139Z,14.20
2022-10-22T18:44:00.794Z,14.30
2022-10-22T18:46:29.284Z,14.30
2022-10-22T18:48:58.013Z,14.40
2022-10-22T18:51:30.534Z,14.40
2022-10-22T18:54:05.183Z,14.40
2022-10-22T18:56:40.564Z,14.50
2022-10-22T18:59:13.243Z,14.50
2022-10-22T19:01:41.380Z,14.50
2022-10-22T19:04:09.568Z,14.50
2022-10-22T19:06:41.781Z,14.50
2022-10-22T19:09:13.604Z,14.50
2022-10-22T19:11:41.734Z,14.50
2022-10-22T19:14:09.876Z,14.40
2022-10-22T19:16:38.688Z,14.40
2022-10-22T19:19:07.908Z,14.40
2022-10-22T19:21:37.944Z,14.30
2022-10-22T19:24:06.845Z,14.30
2022-10-22T19:26:35.239Z,14.20
2022-10-22T19:29:03.534Z,14.20
2022-10-22T19:31:32.205Z,14.20
2022-10-22T19:34:00.893Z,14.10
2022-10-22T19:36:30.072Z,14.10
2022-10-22T19:38:59.784Z,14.10
2022-10-22T19:41:29.173Z,14.00
2022-10-22T19:43:57.871Z,14.00
2022-10-22T19:46:26.911Z,14.00
2022-10-22T19:48:57.056Z,14.00
2022-10-22T19:51:26.774Z,14.00
2022-10-22T19:54:00.181Z,14.00
2022-10-22T19:56:28.380Z,14.00
2022-10-22T19:58:56.467Z,14.00
2022-10-22T20:01:24.619Z,13.90
2022-10-22T20:03:53.032Z,13.90
2022-10-22T20:06:21.840Z,13.90
2022-10-22T20:08:53.786Z,13.90
2022-10-22T20:11:26.868Z,13.80
2022-10-22T20:13:55.101Z,13.90
2022-10-22T20:16:24.698Z,13.90
2022-10-22T20:18:52.870Z,13.90
2022-10-22T20:21:21.340Z,13.80
2022-10-22T20:23:51.887Z,13.80
2022-10-22T20:26:20.033Z,13.80
2022-10-22T20:28:49.530Z,13.80
2022-10-22T20:31:19.846Z,13.80
2022-10-22T20:33:48.208Z,13.80
2022-10-22T20:36:18.831Z,13.80
2022-10-22T20:38:48.155Z,13.80
2022-10-22T20:41:18.369Z,13.80
2022-10-22T20:43:46.738Z,13.80
2022-10-22T20:46:18.680Z,13.80
2022-10-22T20:48:46.838Z,13.80
2022-10-22T20:51:14.931Z,13.90
2022-10-22T20:53:43.211Z,13.90
2022-10-22T20:56:11.768Z,13.90
2022-10-22T20:58:39.992Z,14.00
2022-10-22T21:01:12.202Z,14.00
2022-10-22T21:03:41.954Z,14.00
2022-10-22T21:06:10.031Z,14.00
2022-10-22T21:08:38.167Z,14.10
2022-10-22T21:11:06.811Z,14.10
2022-10-22T21:13:35.094Z,14.10
2022-10-22T21:16:09.506Z,14.20
2022-10-22T21:18:37.795Z,14.20
2022-10-22T21:21:08.187Z,14.20
2022-10-22T21:23:36.605Z,14.30
2022-10-22T21:26:04.809Z,14.30
2022-10-22T21:28:35.006Z,14.30
2022-10-22T21:31:03.518Z,14.30
2022-10-22T21:33:31.679Z,14.30
2022-10-22T21:35:59.763Z,14.30
2022-10-22T21:38:29.232Z,14.40
2022-10-22T21:40:57.386Z,14.40
2022-10-22T21:43:25.531Z,14.40
2022-10-22T21:46:06.936Z,14.40
2022-10-22T21:48:36.623Z,14.40
2022-10-22T21:51:08.755Z,14.40
2022-10-22T21:53:38.397Z,14.40
2022-10-22T21:56:07.540Z,14.40
2022-10-22T21:58:35.909Z,14.40
2022-10-22T22:01:04.096Z,14.40
2022-10-22T22:03:32.363Z,14.40
2022-10-22T22:06:00.651Z,14.50
2022-10-22T22:08:28.754Z,14.50
2022-10-22T22:11:03.166Z,14.50
2022-10-22T22:13:31.358Z,14.50
2022-10-22T22:16:03.032Z,14.50
2022-10-22T22:18:31.125Z,14.50
2022-10-22T22:20:59.433Z,14.50
2022-10-22T22:23:27.592Z,14.40
2022-10-22T22:26:00.062Z,14.40
2022-10-22T22:28:29.917Z,14.40
2022-10-22T22:30:58.083Z,14.30
2022-10-22T22:33:26.287Z,14.20
2022-10-22T22:35:54.489Z,14.10
2022-10-22T22:38:22.577Z,14.00
2022-10-22T22:40:50.676Z,14.00
2022-10-22T22:43:18.807Z,13.90
2022-10-22T22:45:48.240Z,13.80
2022-10-22T22:48:16.688Z,13.80
2022-10-22T22:50:44.761Z,13.70
2022-10-22T22:53:12.833Z,13.60
2022-10-22T22:55:40.952Z,13.60
2022-10-22T22:58:08.979Z,13.50
2022-10-22T23:00:37.117Z,13.50
2022-10-22T23:03:06.607Z,13.40
2022-10-22T23:05:37.079Z,13.40
2022-10-22T23:08:05.514Z,13.40
2022-10-22T23:10:33.588Z,13.30
2022-10-22T23:13:01.701Z,13.30
2022-10-22T23:15:29.766Z,13.20
2022-10-22T23:17:57.846Z,13.10
2022-10-22T23:20:27.254Z,13.10
2022-10-22T23:22:55.359Z,13.00
2022-10-22T23:25:23.398Z,13.00
2022-10-22T23:27:51.482Z,13.00
2022-10-22T23:30:19.956Z,12.90
2022-10-22T23:32:48.047Z,12.90
2022-10-22T23:35:16.323Z,12.90
2022-10-22T23:37:45.799Z,12.90
2022-10-22T23:40:13.908Z,12.80
2022-10-22T23:42:44.795Z,12.80
2022-10-22T23:45:12.889Z,12.70
2022-10-22T23:47:41.264Z,12.70
2022-10-22T23:50:09.760Z,12.70
2022-10-22T23:52:37.866Z,12.70
2022-10-22T23:55:08.947Z,12.60
2022-10-22T23:57:37.020Z,12.60
